Presho, South Dakota
Current Conditions -  °F | °C
As of 5:53 PM on Saturday 22 Nov 2014 (Local Time) from KPIR Reporting Station
Scattered Clouds Scattered Clouds  
Wind Chill: 37°   Ceiling: Unl
Heat Index: 37°   Visibility: 10mi
Dew Point: 30°   Wind: 0mph
Humidity: 76%   Direction: NA
Pressure: 29.4"   Gusts: NA
Location:  43.91°N, 100.06°W
Report Text: KPIR 222353Z AUTO 00000KT 10SM SCT120 03/M01 A2940 RMK AO2 SLP973 T00281011 10078 20022 51015
Loading
Personal Weather Stations






























Interactive Weather Map New forecast layout! Learn more

10-Day Weather Forecast

Advertisements
Track Severe Weather on mobile